Time;durP1;ratioP1;P1;durP2;ratioP2;P2;SDS_P1;SDS_P2;PMS_P1;PMS_P2;Temp;Humidity;BMP_temperature;BMP_pressure;BME280_temperature;BME280_humidity;BME280_pressure;Samples;Min_cycle;Max_cycle;Signal;HPM_P1;HPM_P2
2023/10/30 00:02:25;;;;;;;;;;;;;;;8.23;100.00;98664.41;5083548;28;19967;-79
2023/10/30 00:05:11;;;;;;;;;;;;;;;8.25;100.00;98662.13;5093862;28;19942;-79
2023/10/30 00:07:55;;;;;;;;;;;;;;;8.28;100.00;98664.25;5082134;28;19919;-79
2023/10/30 00:10:39;;;;;;;;;;;;;;;8.31;100.00;98666.38;5082209;28;19996;-79
2023/10/30 00:13:23;;;;;;;;;;;;;;;8.34;100.00;98662.13;5094376;28;19971;-79
2023/10/30 00:16:09;;;;;;;;;;;;;;;8.37;100.00;98655.97;5096746;28;20438;-79
2023/10/30 00:18:54;;;;;;;;;;;;;;;8.39;100.00;98659.25;5076777;28;19920;-79
2023/10/30 00:21:40;;;;;;;;;;;;;;;8.43;100.00;98657.44;5095605;28;20354;-79
2023/10/30 00:24:25;;;;;;;;;;;;;;;8.44;100.00;98642.47;5096374;28;19919;-79
2023/10/30 00:27:09;;;;;;;;;;;;;;;8.47;100.00;98639.06;5076383;28;19918;-79
2023/10/30 00:29:53;;;;;;;;;;;;;;;8.49;100.00;98631.25;5084036;28;19937;-79
2023/10/30 00:32:37;;;;;;;;;;;;;;;8.53;100.00;98635.00;5079629;28;19919;-79
2023/10/30 00:35:21;;;;;;;;;;;;;;;8.56;100.00;98644.59;5096510;28;19919;-78
2023/10/30 00:38:05;;;;;;;;;;;;;;;8.58;100.00;98636.75;5063800;28;19927;-79
2023/10/30 00:40:49;;;;;;;;;;;;;;;8.58;100.00;98632.06;5092312;28;19943;-79
2023/10/30 00:43:33;;;;;;;;;;;;;;;8.60;100.00;98629.78;5082219;28;19955;-79
2023/10/30 00:46:17;;;;;;;;;;;;;;;8.62;100.00;98635.00;5070093;28;19923;-79
2023/10/30 00:49:01;;;;;;;;;;;;;;;8.62;100.00;98621.16;5079500;28;19935;-79
2023/10/30 00:51:45;;;;;;;;;;;;;;;8.66;100.00;98617.41;5082321;28;19923;-79
2023/10/30 00:54:30;;;;;;;;;;;;;;;8.69;100.00;98611.22;5070149;28;19961;-79
2023/10/30 00:57:14;;;;;;;;;;;;;;;8.69;100.00;98622.28;5080220;28;19918;-79
2023/10/30 00:59:59;;;;;;;;;;;;;;;8.71;100.00;98610.88;5095374;28;19919;-79
2023/10/30 01:02:44;;;;;;;;;;;;;;;8.72;100.00;98605.03;5081199;28;19924;-79
2023/10/30 01:05:28;;;;;;;;;;;;;;;8.76;100.00;98605.19;5101081;28;20385;-79
2023/10/30 01:08:12;;;;;;;;;;;;;;;8.76;100.00;98596.88;5102243;28;19958;-79
2023/10/30 01:10:57;;;;;;;;;;;;;;;8.77;100.00;98592.97;5089968;28;19989;-79
2023/10/30 01:13:41;;;;;;;;;;;;;;;8.77;100.00;98590.19;5081387;28;19920;-79
2023/10/30 01:16:25;;;;;;;;;;;;;;;8.79;100.00;98587.09;5077540;28;19962;-79
2023/10/30 01:19:09;;;;;;;;;;;;;;;8.81;100.00;98582.06;5076009;28;19919;-79
2023/10/30 01:21:52;;;;;;;;;;;;;;;8.85;100.00;98577.47;5080163;28;19928;-79
2023/10/30 01:24:37;;;;;;;;;;;;;;;8.84;100.00;98579.44;5085445;28;20268;-79
2023/10/30 01:27:20;;;;;;;;;;;;;;;8.86;100.00;98571.63;5085634;28;20367;-79
2023/10/30 01:30:05;;;;;;;;;;;;;;;8.89;100.00;98570.97;5067666;28;19977;-79
2023/10/30 01:32:49;;;;;;;;;;;;;;;8.92;100.00;98566.72;5082950;28;19918;-79
2023/10/30 01:35:33;;;;;;;;;;;;;;;8.92;100.00;98569.50;5079710;28;19919;-79
2023/10/30 01:38:17;;;;;;;;;;;;;;;8.97;100.00;98571.25;5115856;27;19960;-79
2023/10/30 01:41:01;;;;;;;;;;;;;;;8.99;100.00;98589.16;5097166;28;19961;-79
2023/10/30 01:43:45;;;;;;;;;;;;;;;9.02;100.00;98598.75;5099234;28;19922;-79
2023/10/30 01:46:29;;;;;;;;;;;;;;;9.03;100.00;98608.72;5075062;28;19920;-79
2023/10/30 01:49:13;;;;;;;;;;;;;;;9.05;100.00;98604.44;5099756;28;19919;-79
2023/10/30 01:51:57;;;;;;;;;;;;;;;9.08;100.00;98606.56;5079915;28;20260;-79
2023/10/30 01:54:42;;;;;;;;;;;;;;;9.09;100.00;98613.72;5093216;28;19965;-79
2023/10/30 01:57:27;;;;;;;;;;;;;;;9.14;100.00;98626.59;5098854;28;20280;-79
2023/10/30 02:00:11;;;;;;;;;;;;;;;9.15;100.00;98615.16;5099202;28;19919;-79
2023/10/30 02:02:55;;;;;;;;;;;;;;;9.18;100.00;98608.97;5084574;28;19939;-79
2023/10/30 02:05:39;;;;;;;;;;;;;;;9.19;100.00;98612.53;5093509;28;19962;-79
2023/10/30 02:08:23;;;;;;;;;;;;;;;9.21;100.00;98615.81;5095708;28;19969;-78
2023/10/30 02:11:07;;;;;;;;;;;;;;;9.22;100.00;98617.44;5084778;28;19918;-78
2023/10/30 02:13:55;;;;;;;;;;;;;;;9.24;100.00;98606.03;5067661;28;19969;-78
2023/10/30 02:16:38;;;;;;;;;;;;;;;9.24;100.00;98608.78;5082897;28;19919;-79
2023/10/30 02:19:23;;;;;;;;;;;;;;;9.27;100.00;98597.03;5084853;28;19937;-79
2023/10/30 02:22:07;;;;;;;;;;;;;;;9.28;100.00;98593.97;5078698;28;20340;-79
2023/10/30 02:24:51;;;;;;;;;;;;;;;9.29;100.00;98594.75;5078233;28;19943;-78
2023/10/30 02:27:35;;;;;;;;;;;;;;;9.28;100.00;98593.16;5124739;27;19919;-79
2023/10/30 02:30:20;;;;;;;;;;;;;;;9.28;100.00;98582.06;5108245;28;19973;-79
2023/10/30 02:33:03;;;;;;;;;;;;;;;9.29;100.00;98572.59;5085515;28;19938;-78
2023/10/30 02:35:48;;;;;;;;;;;;;;;9.30;100.00;98563.13;5081474;28;19973;-78
2023/10/30 02:38:32;;;;;;;;;;;;;;;9.32;100.00;98558.09;5074356;28;19927;-79
2023/10/30 02:41:16;;;;;;;;;;;;;;;9.32;100.00;98549.78;5084099;28;19961;-78
2023/10/30 02:44:00;;;;;;;;;;;;;;;9.34;100.00;98547.50;5080108;28;20379;-78
2023/10/30 02:46:44;;;;;;;;;;;;;;;9.36;100.00;98561.81;5080922;28;20271;-79
2023/10/30 02:49:28;;;;;;;;;;;;;;;9.37;100.00;98571.75;5079224;28;20276;-78
2023/10/30 02:52:12;;;;;;;;;;;;;;;9.38;100.00;98573.38;5094342;28;19979;-78
2023/10/30 02:54:56;;;;;;;;;;;;;;;9.39;100.00;98558.38;5077805;28;19920;-79
2023/10/30 02:57:40;;;;;;;;;;;;;;;9.38;100.00;98570.59;5086044;28;19982;-79
2023/10/30 03:00:25;;;;;;;;;;;;;;;9.39;100.00;98563.94;5096164;28;20383;-79
2023/10/30 03:03:09;;;;;;;;;;;;;;;9.40;100.00;98571.09;5098146;28;19922;-78
2023/10/30 03:05:53;;;;;;;;;;;;;;;9.40;100.00;98554.47;5087214;28;19927;-78
2023/10/30 03:08:37;;;;;;;;;;;;;;;9.40;100.00;98551.69;5083412;28;19922;-78
2023/10/30 03:11:21;;;;;;;;;;;;;;;9.42;100.00;98563.25;5078585;28;19927;-78
2023/10/30 03:14:06;;;;;;;;;;;;;;;9.43;100.00;98564.06;5083330;28;19919;-79
2023/10/30 03:16:50;;;;;;;;;;;;;;;9.43;100.00;98567.66;5083781;28;19939;-79
2023/10/30 03:19:35;;;;;;;;;;;;;;;9.45;100.00;98575.63;5093659;28;19919;-78
2023/10/30 03:22:19;;;;;;;;;;;;;;;9.47;100.00;98567.78;5080121;28;20008;-79
2023/10/30 03:25:03;;;;;;;;;;;;;;;9.48;100.00;98564.69;5075658;28;19966;-78
2023/10/30 03:27:47;;;;;;;;;;;;;;;9.50;100.00;98565.19;5089973;28;20405;-79
2023/10/30 03:30:35;;;;;;;;;;;;;;;9.50;100.00;98562.41;5091526;28;19939;-79
2023/10/30 03:33:20;;;;;;;;;;;;;;;9.51;100.00;98568.75;5084701;28;20314;-79
2023/10/30 03:36:04;;;;;;;;;;;;;;;9.53;100.00;98558.16;5115239;28;19926;-79
2023/10/30 03:38:48;;;;;;;;;;;;;;;9.55;100.00;98564.16;5089060;28;20032;-79
2023/10/30 03:41:32;;;;;;;;;;;;;;;9.55;100.00;98573.28;5070964;28;20382;-79
2023/10/30 03:44:19;;;;;;;;;;;;;;;9.57;100.00;98570.19;5082649;28;20263;-78
2023/10/30 03:47:03;;;;;;;;;;;;;;;9.57;100.00;98568.22;5094016;28;19957;-79
2023/10/30 03:49:46;;;;;;;;;;;;;;;9.59;100.00;98576.22;5080723;28;19923;-79
2023/10/30 03:52:31;;;;;;;;;;;;;;;9.59;100.00;98577.03;5095759;28;19934;-79
2023/10/30 03:55:15;;;;;;;;;;;;;;;9.61;100.00;98585.81;5077741;28;19950;-79
2023/10/30 03:57:59;;;;;;;;;;;;;;;9.62;100.00;98595.75;5091405;28;20398;-78
2023/10/30 04:00:43;;;;;;;;;;;;;;;9.63;100.00;98605.69;5090932;28;19919;-78
2023/10/30 04:03:27;;;;;;;;;;;;;;;9.67;100.00;98605.00;5106650;28;19966;-79
2023/10/30 04:06:11;;;;;;;;;;;;;;;9.67;100.00;98591.97;5077132;28;19959;-78
2023/10/30 04:08:55;;;;;;;;;;;;;;;9.68;100.00;98593.59;5118846;27;19961;-79
2023/10/30 04:11:39;;;;;;;;;;;;;;;9.71;100.00;98590.16;5103054;28;19957;-79
2023/10/30 04:14:22;;;;;;;;;;;;;;;9.71;100.00;98590.16;5091294;28;20334;-79
2023/10/30 04:17:06;;;;;;;;;;;;;;;9.72;100.00;98597.34;5091186;28;19922;-78
2023/10/30 04:19:50;;;;;;;;;;;;;;;9.73;100.00;98593.41;5095204;28;19961;-78
2023/10/30 04:22:34;;;;;;;;;;;;;;;9.71;100.00;98595.69;5076563;28;20409;-78
2023/10/30 04:25:19;;;;;;;;;;;;;;;9.73;100.00;98589.81;5071625;28;19919;-78
2023/10/30 04:28:02;;;;;;;;;;;;;;;9.75;100.00;98587.50;5081507;28;19962;-78
2023/10/30 04:30:46;;;;;;;;;;;;;;;9.74;100.00;98578.38;5096878;28;19961;-78
2023/10/30 04:33:30;;;;;;;;;;;;;;;9.73;100.00;98554.59;5096937;28;20402;-78
2023/10/30 04:36:15;;;;;;;;;;;;;;;9.76;100.00;98555.88;5082386;28;19962;-78
2023/10/30 04:38:58;;;;;;;;;;;;;;;9.76;100.00;98558.66;5068066;28;19935;-78
2023/10/30 04:41:42;;;;;;;;;;;;;;;9.75;100.00;98557.03;5076631;28;19962;-78
2023/10/30 04:44:27;;;;;;;;;;;;;;;9.74;100.00;98560.94;5080368;28;19923;-78
2023/10/30 04:47:11;;;;;;;;;;;;;;;9.73;100.00;98553.78;5094273;28;20012;-78
2023/10/30 04:49:55;;;;;;;;;;;;;;;9.73;100.00;98551.03;5092822;28;19961;-78
2023/10/30 04:52:39;;;;;;;;;;;;;;;9.72;100.00;98541.91;5082095;28;19927;-78
2023/10/30 04:55:23;;;;;;;;;;;;;;;9.72;100.00;98541.06;5078598;28;20545;-78
2023/10/30 04:58:07;;;;;;;;;;;;;;;9.73;100.00;98537.16;5080079;28;19965;-78
2023/10/30 05:00:50;;;;;;;;;;;;;;;9.70;100.00;98537.84;5102346;28;19919;-78
2023/10/30 05:03:35;;;;;;;;;;;;;;;9.66;100.00;98534.09;5100061;28;19923;-78
2023/10/30 05:06:20;;;;;;;;;;;;;;;9.65;100.00;98527.75;5080292;28;19923;-78
2023/10/30 05:09:04;;;;;;;;;;;;;;;9.64;100.00;98534.44;5080274;28;19961;-78
2023/10/30 05:11:48;;;;;;;;;;;;;;;9.62;100.00;98545.84;5098868;28;19918;-79
2023/10/30 05:14:32;;;;;;;;;;;;;;;9.60;100.00;98548.16;5100270;28;19919;-78
2023/10/30 05:17:16;;;;;;;;;;;;;;;9.62;100.00;98547.81;5100172;28;19954;-78
2023/10/30 05:20:00;;;;;;;;;;;;;;;9.61;100.00;98557.25;5086052;28;19962;-78
2023/10/30 05:22:44;;;;;;;;;;;;;;;9.58;100.00;98563.47;5099944;28;19922;-78
2023/10/30 05:25:28;;;;;;;;;;;;;;;9.56;100.00;98565.78;5085601;28;19965;-78
2023/10/30 05:28:12;;;;;;;;;;;;;;;9.54;100.00;98571.66;5087330;28;19923;-78
2023/10/30 05:30:56;;;;;;;;;;;;;;;9.54;100.00;98577.19;5082427;28;20356;-78
2023/10/30 05:33:40;;;;;;;;;;;;;;;9.55;100.00;98570.50;5079615;28;19965;-78
2023/10/30 05:36:24;;;;;;;;;;;;;;;9.54;100.00;98573.63;5088029;28;20402;-78
2023/10/30 05:39:08;;;;;;;;;;;;;;;9.52;100.00;98575.91;5071494;28;20445;-78
2023/10/30 05:41:53;;;;;;;;;;;;;;;9.51;100.00;98575.09;5079496;28;19924;-78
2023/10/30 05:44:36;;;;;;;;;;;;;;;9.50;100.00;98565.19;5071902;28;19923;-78
2023/10/30 05:47:20;;;;;;;;;;;;;;;9.51;100.00;98577.88;5078115;28;19919;-78
2023/10/30 05:50:05;;;;;;;;;;;;;;;9.48;100.00;98580.50;5093605;28;19918;-78
2023/10/30 05:52:49;;;;;;;;;;;;;;;9.48;100.00;98584.09;5087103;28;19934;-78
2023/10/30 05:55:33;;;;;;;;;;;;;;;9.49;100.00;98591.25;5102353;28;19918;-78
2023/10/30 05:58:17;;;;;;;;;;;;;;;9.47;100.00;98588.00;5093061;28;19923;-78
2023/10/30 06:01:01;;;;;;;;;;;;;;;9.46;100.00;98583.59;5087432;28;19919;-78
2023/10/30 06:03:46;;;;;;;;;;;;;;;9.42;100.00;98577.13;5099094;28;20280;-78
2023/10/30 06:06:30;;;;;;;;;;;;;;;9.43;100.00;98573.19;5098555;28;19919;-78
2023/10/30 06:09:14;;;;;;;;;;;;;;;9.42;100.00;98579.03;5092764;28;19919;-78
2023/10/30 06:11:57;;;;;;;;;;;;;;;9.43;100.00;98580.69;5081118;28;19961;-78
2023/10/30 06:14:42;;;;;;;;;;;;;;;9.41;100.00;98578.25;5084736;28;20371;-78
2023/10/30 06:17:26;;;;;;;;;;;;;;;9.40;100.00;98571.91;5076892;28;19919;-78
2023/10/30 06:20:11;;;;;;;;;;;;;;;9.40;100.00;98557.22;5082738;28;20011;-78
2023/10/30 06:22:57;;;;;;;;;;;;;;;9.38;100.00;98570.59;5099801;28;19931;-78
2023/10/30 06:25:41;;;;;;;;;;;;;;;9.38;100.00;98565.88;5078420;28;19962;-78
2023/10/30 06:28:25;;;;;;;;;;;;;;;9.36;100.00;98564.56;5073114;28;19919;-78
2023/10/30 06:31:13;;;;;;;;;;;;;;;9.36;100.00;98567.34;5082789;28;19935;-78
2023/10/30 06:33:57;;;;;;;;;;;;;;;9.33;100.00;98562.47;5093488;28;19923;-78
2023/10/30 06:36:41;;;;;;;;;;;;;;;9.33;100.00;98563.31;5078359;28;20015;-79
2023/10/30 06:39:25;;;;;;;;;;;;;;;9.33;100.00;98568.00;5094904;28;19919;-78
2023/10/30 06:42:09;;;;;;;;;;;;;;;9.29;100.00;98578.94;5078144;28;20348;-78
2023/10/30 06:44:53;;;;;;;;;;;;;;;9.29;100.00;98578.94;5073015;28;19950;-78
2023/10/30 06:47:37;;;;;;;;;;;;;;;9.27;100.00;98574.88;5085279;28;19958;-78
2023/10/30 06:50:22;;;;;;;;;;;;;;;9.26;100.00;98564.97;5099273;28;19961;-78
2023/10/30 06:53:06;;;;;;;;;;;;;;;9.23;100.00;98552.59;5078544;28;20311;-79
2023/10/30 06:55:50;;;;;;;;;;;;;;;9.24;100.00;98559.75;5096664;28;19927;-78
2023/10/30 06:58:34;;;;;;;;;;;;;;;9.25;100.00;98571.63;5079749;28;19919;-78
2023/10/30 07:01:18;;;;;;;;;;;;;;;9.25;100.00;98568.84;5077947;28;19935;-78
2023/10/30 07:04:02;;;;;;;;;;;;;;;9.24;100.00;98573.59;5097834;28;19923;-78
2023/10/30 07:06:46;;;;;;;;;;;;;;;9.23;100.00;98579.47;5080646;28;19958;-78
2023/10/30 07:09:30;;;;;;;;;;;;;;;9.21;100.00;98576.22;5083321;28;20268;-78
2023/10/30 07:12:15;;;;;;;;;;;;;;;9.22;100.00;98588.91;5085980;28;19919;-78
2023/10/30 07:14:58;;;;;;;;;;;;;;;9.21;100.00;98576.22;5080548;28;19919;-78
2023/10/30 07:17:43;;;;;;;;;;;;;;;9.21;100.00;98576.22;5095603;28;19934;-78
2023/10/30 07:20:26;;;;;;;;;;;;;;;9.23;100.00;98579.47;5102179;28;19920;-78
2023/10/30 07:23:11;;;;;;;;;;;;;;;9.23;100.00;98579.47;5110556;28;19927;-78
2023/10/30 07:25:54;;;;;;;;;;;;;;;9.24;100.00;98587.44;5092328;28;20395;-79
2023/10/30 07:28:39;;;;;;;;;;;;;;;9.24;100.00;98592.16;5077217;28;19927;-78
2023/10/30 07:31:22;;;;;;;;;;;;;;;9.25;100.00;98582.72;5096430;28;19919;-78
2023/10/30 07:34:07;;;;;;;;;;;;;;;9.27;100.00;98570.16;5094099;28;20351;-78
2023/10/30 07:36:51;;;;;;;;;;;;;;;9.25;100.00;98577.16;5098397;28;19976;-78
2023/10/30 07:39:34;;;;;;;;;;;;;;;9.29;100.00;98576.19;5083194;28;19919;-78
2023/10/30 07:42:18;;;;;;;;;;;;;;;9.31;100.00;98584.97;5092003;28;19923;-78
2023/10/30 07:45:03;;;;;;;;;;;;;;;9.31;100.00;98581.41;5077838;28;19934;-79
2023/10/30 07:47:47;;;;;;;;;;;;;;;9.33;100.00;98579.09;5119410;27;19924;-78
2023/10/30 07:50:31;;;;;;;;;;;;;;;9.34;100.00;98589.84;5108221;28;19918;-79
2023/10/30 07:53:15;;;;;;;;;;;;;;;9.35;100.00;98580.38;5097402;28;19919;-78
2023/10/30 07:55:59;;;;;;;;;;;;;;;9.36;100.00;98583.97;5064059;28;19935;-78
2023/10/30 07:58:43;;;;;;;;;;;;;;;9.39;100.00;98586.91;5093775;28;19975;-79
2023/10/30 08:01:27;;;;;;;;;;;;;;;9.40;100.00;98587.72;5077122;28;19969;-78
2023/10/30 08:04:11;;;;;;;;;;;;;;;9.42;100.00;98579.88;5097312;28;19924;-78
2023/10/30 08:06:55;;;;;;;;;;;;;;;9.44;100.00;98582.31;5114091;28;19918;-78
2023/10/30 08:09:39;;;;;;;;;;;;;;;9.45;100.00;98575.63;5080306;28;20030;-78
2023/10/30 08:12:23;;;;;;;;;;;;;;;9.47;100.00;98592.72;5076688;28;19938;-78
2023/10/30 08:15:07;;;;;;;;;;;;;;;9.48;100.00;98603.47;5095248;28;19954;-78
2023/10/30 08:17:53;;;;;;;;;;;;;;;9.47;100.00;98601.03;5075591;28;20284;-78
2023/10/30 08:20:37;;;;;;;;;;;;;;;9.48;100.00;98614.56;5076891;28;19923;-78
2023/10/30 08:23:21;;;;;;;;;;;;;;;9.51;100.00;98621.41;5096680;28;19965;-78
2023/10/30 08:26:08;;;;;;;;;;;;;;;9.54;100.00;98624.31;5078994;28;19935;-78
2023/10/30 08:28:52;;;;;;;;;;;;;;;9.56;100.00;98621.22;5096756;28;19920;-78
2023/10/30 08:31:40;;;;;;;;;;;;;;;9.57;100.00;98623.66;5078824;28;20023;-79
2023/10/30 08:34:24;;;;;;;;;;;;;;;9.61;100.00;98637.63;5094274;28;19961;-79
2023/10/30 08:37:08;;;;;;;;;;;;;;;9.62;100.00;98622.66;5076671;28;19973;-78
2023/10/30 08:39:53;;;;;;;;;;;;;;;9.68;100.00;98617.72;5063714;28;19919;-79
2023/10/30 08:42:36;;;;;;;;;;;;;;;9.70;100.00;98619.03;5082241;28;19968;-79
2023/10/30 08:45:22;;;;;;;;;;;;;;;9.72;100.00;98619.50;5098994;28;19919;-79
2023/10/30 08:48:06;;;;;;;;;;;;;;;9.74;100.00;98610.84;5084421;28;19996;-78
2023/10/30 08:50:50;;;;;;;;;;;;;;;9.76;100.00;98611.34;5095460;28;19965;-78
2023/10/30 08:53:34;;;;;;;;;;;;;;;9.78;100.00;98601.53;5097395;28;19922;-79
2023/10/30 08:56:18;;;;;;;;;;;;;;;9.81;100.00;98608.38;5082202;28;20434;-78
2023/10/30 08:59:05;;;;;;;;;;;;;;;9.83;100.00;98608.81;5096390;28;20284;-79
2023/10/30 09:01:49;;;;;;;;;;;;;;;9.86;100.00;98602.59;5097403;28;20288;-79
2023/10/30 09:04:34;;;;;;;;;;;;;;;9.90;100.00;98597.22;5076214;28;19939;-78
2023/10/30 09:07:18;;;;;;;;;;;;;;;9.92;100.00;98601.28;5095832;28;19956;-79
2023/10/30 09:10:03;;;;;;;;;;;;;;;9.95;100.00;98597.84;5092515;28;19920;-79
2023/10/30 09:12:46;;;;;;;;;;;;;;;9.99;100.00;98601.56;5090689;28;19919;-79
2023/10/30 09:15:31;;;;;;;;;;;;;;;10.04;100.00;98606.09;5083267;28;19918;-79
2023/10/30 09:18:14;;;;;;;;;;;;;;;10.09;100.00;98605.09;5099875;28;19960;-79
2023/10/30 09:20:59;;;;;;;;;;;;;;;10.12;100.00;98593.31;5097438;28;19923;-78
2023/10/30 09:23:43;;;;;;;;;;;;;;;10.17;100.00;98582.00;5099237;28;19962;-78
2023/10/30 09:26:27;;;;;;;;;;;;;;;10.22;100.00;98587.34;5081053;28;20000;-79
2023/10/30 09:29:11;;;;;;;;;;;;;;;10.26;100.00;98583.56;5096341;28;19958;-79
2023/10/30 09:31:56;;;;;;;;;;;;;;;10.30;100.00;98578.19;5075871;28;19919;-78
2023/10/30 09:34:41;;;;;;;;;;;;;;;10.36;100.00;98574.03;5095883;28;19923;-79
2023/10/30 09:37:25;;;;;;;;;;;;;;;10.39;100.00;98587.25;5085843;28;19928;-79
2023/10/30 09:40:12;;;;;;;;;;;;;;;10.44;100.00;98584.25;5095422;28;20398;-79
2023/10/30 09:42:59;;;;;;;;;;;;;;;10.48;100.00;98601.06;5097226;28;20334;-79
2023/10/30 09:45:43;;;;;;;;;;;;;;;10.49;100.00;98603.47;5081812;28;19927;-79
2023/10/30 09:48:28;;;;;;;;;;;;;;;10.54;100.00;98607.22;5093974;28;19949;-79
2023/10/30 09:51:12;;;;;;;;;;;;;;;10.56;100.00;98604.88;5087168;28;19962;-79
2023/10/30 09:53:57;;;;;;;;;;;;;;;10.59;100.00;98604.22;5082449;28;19918;-79
2023/10/30 09:56:44;;;;;;;;;;;;;;;10.62;100.00;98609.91;5100590;28;19934;-79
2023/10/30 09:59:34;;;;;;;;;;;;;;;10.63;100.00;98599.63;5074774;28;20001;-79
2023/10/30 10:02:18;;;;;;;;;;;;;;;10.66;100.00;98593.38;5084969;28;19923;-79
2023/10/30 10:05:02;;;;;;;;;;;;;;;10.67;100.00;98593.03;5078590;28;20006;-79
2023/10/30 10:07:46;;;;;;;;;;;;;;;10.70;100.00;98608.22;5097406;28;19961;-79
2023/10/30 10:10:44;;;;;;;;;;;;;;;10.72;100.00;98611.44;5069179;28;19958;-79
2023/10/30 10:13:37;;;;;;;;;;;;;;;10.74;100.00;98609.13;5084906;28;20427;-79
2023/10/30 10:16:25;;;;;;;;;;;;;;;10.76;100.00;98606.84;5098711;28;19965;-79
2023/10/30 10:19:19;;;;;;;;;;;;;;;10.77;100.00;98608.44;5088844;28;19977;-79
2023/10/30 10:22:04;;;;;;;;;;;;;;;10.79;100.00;98608.94;5074055;28;19926;-79
2023/10/30 10:24:51;;;;;;;;;;;;;;;10.81;100.00;98600.25;5071715;28;20003;-79
2023/10/30 10:27:35;;;;;;;;;;;;;;;10.80;100.00;98596.66;5076320;28;20367;-79
2023/10/30 10:30:21;;;;;;;;;;;;;;;10.82;100.00;98601.88;5078035;28;20265;-79
2023/10/30 10:33:05;;;;;;;;;;;;;;;10.83;100.00;98597.94;5091227;28;19956;-79
2023/10/30 10:35:53;;;;;;;;;;;;;;;10.82;100.00;98593.56;5081276;28;20383;-79
2023/10/30 10:38:37;;;;;;;;;;;;;;;10.83;100.00;98595.97;5074979;28;20290;-79
2023/10/30 10:41:21;;;;;;;;;;;;;;;10.86;100.00;98603.63;5078389;28;20356;-79
2023/10/30 10:44:05;;;;;;;;;;;;;;;10.88;100.00;98597.72;5093888;28;19965;-79
2023/10/30 10:46:49;;;;;;;;;;;;;;;10.89;100.00;98588.22;5074711;28;19938;-79
2023/10/30 10:49:33;;;;;;;;;;;;;;;10.91;100.00;98581.19;5111708;28;20268;-80
2023/10/30 10:52:19;;;;;;;;;;;;;;;10.94;100.00;98577.72;5081737;28;19931;-79
2023/10/30 10:55:05;;;;;;;;;;;;;;;10.94;100.00;98583.28;5076790;28;19962;-79
2023/10/30 10:57:51;;;;;;;;;;;;;;;10.98;100.00;98582.59;5087437;28;20394;-79
2023/10/30 11:00:40;;;;;;;;;;;;;;;10.99;100.00;98573.91;5072860;28;20005;-80
2023/10/30 11:03:25;;;;;;;;;;;;;;;11.02;100.00;98564.09;5083927;28;19935;-79
2023/10/30 11:06:09;;;;;;;;;;;;;;;11.03;100.00;98576.81;5084092;28;19919;-79
2023/10/30 11:08:54;;;;;;;;;;;;;;;11.03;100.00;98566.53;5076771;28;20387;-79
2023/10/30 11:11:42;;;;;;;;;;;;;;;11.08;100.00;98566.28;5080983;28;19919;-79
2023/10/30 11:14:32;;;;;;;;;;;;;;;11.11;100.00;98562.00;5111748;28;19919;-79
2023/10/30 11:17:16;;;;;;;;;;;;;;;11.11;100.00;98562.81;5102837;28;20375;-79
2023/10/30 11:20:03;;;;;;;;;;;;;;;11.12;100.00;98560.88;5099018;28;19958;-80
2023/10/30 11:22:47;;;;;;;;;;;;;;;11.14;100.00;98561.31;5083397;28;20328;-80
2023/10/30 11:25:39;;;;;;;;;;;;;;;11.15;100.00;98547.09;5077641;28;19966;-79
2023/10/30 11:28:23;;;;;;;;;;;;;;;11.15;100.00;98541.53;5085593;28;19934;-79
2023/10/30 11:31:07;;;;;;;;;;;;;;;11.16;100.00;98543.16;5081411;28;19919;-79
2023/10/30 11:33:52;;;;;;;;;;;;;;;11.14;100.00;98530.75;5098561;28;20365;-78
2023/10/30 11:36:36;;;;;;;;;;;;;;;11.14;100.00;98531.59;5081945;28;19933;-79
2023/10/30 11:39:20;;;;;;;;;;;;;;;11.13;100.00;98527.19;5069511;28;19979;-79
2023/10/30 11:42:24;;;;;;;;;;;;;;;11.13;100.00;98529.16;5075667;28;19920;-79
2023/10/30 11:45:24;;;;;;;;;;;;;;;11.12;100.00;98528.34;5092469;28;19982;-79
2023/10/30 11:48:08;;;;;;;;;;;;;;;11.12;100.00;98531.13;5102767;28;20272;-79
2023/10/30 11:50:53;;;;;;;;;;;;;;;11.11;100.00;98526.69;5105478;28;20321;-79
2023/10/30 11:53:37;;;;;;;;;;;;;;;11.12;100.00;98519.22;5082958;28;19958;-78
2023/10/30 11:56:21;;;;;;;;;;;;;;;11.12;100.00;98521.97;5082684;28;20244;-79
2023/10/30 11:59:05;;;;;;;;;;;;;;;11.13;100.00;98527.19;5082451;28;19966;-79
2023/10/30 12:01:49;;;;;;;;;;;;;;;11.12;100.00;98514.47;5080699;28;19996;-79
2023/10/30 12:04:33;;;;;;;;;;;;;;;11.12;100.00;98525.56;5072104;28;19950;-78
2023/10/30 12:07:17;;;;;;;;;;;;;;;11.11;100.00;98523.94;5078639;28;19924;-78
2023/10/30 12:10:02;;;;;;;;;;;;;;;11.11;100.00;98521.16;5107606;28;19976;-79
2023/10/30 12:12:46;;;;;;;;;;;;;;;11.09;100.00;98525.47;5098007;28;19919;-78
2023/10/30 12:15:30;;;;;;;;;;;;;;;11.10;100.00;98527.06;5070828;28;20275;-78
2023/10/30 12:18:14;;;;;;;;;;;;;;;11.06;100.00;98526.97;5080987;28;19919;-78
2023/10/30 12:20:58;;;;;;;;;;;;;;;11.06;100.00;98531.69;5076846;28;19919;-79
2023/10/30 12:23:51;;;;;;;;;;;;;;;11.03;100.00;98522.09;5076233;28;20030;-78
2023/10/30 12:26:41;;;;;;;;;;;;;;;11.00;100.00;98546.94;5076700;28;19966;-78
2023/10/30 12:29:25;;;;;;;;;;;;;;;10.99;100.00;98571.16;5095253;28;20384;-78
2023/10/30 12:32:09;;;;;;;;;;;;;;;10.91;100.00;98561.75;5090845;28;19920;-79
2023/10/30 12:34:54;;;;;;;;;;;;;;;10.86;100.00;98533.38;5103738;28;20294;-78
2023/10/30 12:37:38;;;;;;;;;;;;;;;10.82;100.00;98538.81;5081920;28;20447;-78
2023/10/30 12:40:22;;;;;;;;;;;;;;;10.79;100.00;98558.94;5088296;28;19919;-78
2023/10/30 12:43:06;;;;;;;;;;;;;;;10.80;100.00;98551.44;5096627;28;20318;-78
2023/10/30 12:45:50;;;;;;;;;;;;;;;10.77;100.00;98549.34;5093081;28;20264;-78
2023/10/30 12:48:34;;;;;;;;;;;;;;;10.78;100.00;98550.94;5076802;28;19958;-78
2023/10/30 12:51:19;;;;;;;;;;;;;;;10.79;100.00;98549.81;5085206;28;19933;-78
2023/10/30 12:54:03;;;;;;;;;;;;;;;10.79;100.00;98547.03;5094996;28;19918;-78
2023/10/30 12:56:47;;;;;;;;;;;;;;;10.86;100.00;98545.28;5077039;28;19959;-79
2023/10/30 12:59:31;;;;;;;;;;;;;;;10.98;100.00;98541.75;5076412;28;19920;-78
2023/10/30 13:02:15;;;;;;;;;;;;;;;11.09;100.00;98540.16;5089104;28;19962;-79
2023/10/30 13:04:59;;;;;;;;;;;;;;;11.20;100.00;98532.19;5082202;28;19934;-79
2023/10/30 13:07:43;;;;;;;;;;;;;;;11.34;100.00;98532.66;5079634;28;19986;-78
2023/10/30 13:10:27;;;;;;;;;;;;;;;11.44;100.00;98527.78;5082950;28;19920;-79
2023/10/30 13:13:15;;;;;;;;;;;;;;;11.57;100.00;98529.38;5096739;28;19934;-78
2023/10/30 13:16:00;;;;;;;;;;;;;;;11.69;100.00;98531.34;5090315;28;20048;-78
2023/10/30 13:18:45;;;;;;;;;;;;;;;11.77;100.00;98527.63;5096306;28;19935;-78
2023/10/30 13:21:29;;;;;;;;;;;;;;;11.84;100.00;98530.63;5100355;28;20009;-79
2023/10/30 13:24:13;;;;;;;;;;;;;;;11.90;100.00;98534.81;5085460;28;19941;-78
2023/10/30 13:26:57;;;;;;;;;;;;;;;11.94;100.00;98532.13;5095914;28;20021;-79
2023/10/30 13:29:41;;;;;;;;;;;;;;;11.95;100.00;98529.03;5100237;28;19961;-79
2023/10/30 13:32:25;;;;;;;;;;;;;;;11.97;100.00;98526.66;5085775;28;19919;-78
2023/10/30 13:35:09;;;;;;;;;;;;;;;11.98;100.00;98524.69;5070564;28;19975;-78
2023/10/30 13:37:53;;;;;;;;;;;;;;;12.01;100.00;98532.38;5095189;28;19927;-79
2023/10/30 13:40:37;;;;;;;;;;;;;;;12.01;100.00;98526.81;5079248;28;19935;-78
2023/10/30 13:43:21;;;;;;;;;;;;;;;12.01;100.00;98522.03;5079540;28;19965;-79
2023/10/30 13:46:08;;;;;;;;;;;;;;;11.98;100.00;98528.31;5099246;28;20320;-79
2023/10/30 13:48:55;;;;;;;;;;;;;;;11.96;100.00;98524.25;5095612;28;19958;-79
2023/10/30 13:51:39;;;;;;;;;;;;;;;11.91;100.00;98527.28;5093668;28;19920;-79
2023/10/30 13:54:23;;;;;;;;;;;;;;;11.89;100.00;98524.03;5101172;28;19919;-79
2023/10/30 13:57:07;;;;;;;;;;;;;;;11.85;100.00;98535.88;5097164;28;19941;-79
2023/10/30 13:59:51;;;;;;;;;;;;;;;11.81;100.00;98534.94;5099508;28;19918;-79
2023/10/30 14:02:36;;;;;;;;;;;;;;;11.79;100.00;98528.09;5067492;28;20459;-78
2023/10/30 14:05:20;;;;;;;;;;;;;;;11.75;100.00;98536.31;5097259;28;19942;-79
2023/10/30 14:08:04;;;;;;;;;;;;;;;11.72;100.00;98542.56;5079480;28;20009;-78
2023/10/30 14:10:48;;;;;;;;;;;;;;;11.70;100.00;98541.28;5099269;28;19987;-79
2023/10/30 14:13:33;;;;;;;;;;;;;;;11.66;100.00;98551.50;5078412;28;19920;-79